createdAt,value
2023-03-11T00:01:19.404Z,1.02
2023-03-11T00:03:45.786Z,2.17
2023-03-11T00:06:12.299Z,2.30
2023-03-11T00:08:38.729Z,0.83
2023-03-11T00:11:05.313Z,1.00
2023-03-11T00:13:32.118Z,1.90
2023-03-11T00:16:01.621Z,0.90
2023-03-11T00:18:29.643Z,1.70
2023-03-11T00:20:57.873Z,1.30
2023-03-11T00:23:25.818Z,1.00
2023-03-11T00:25:52.572Z,1.15
2023-03-11T00:28:18.992Z,1.27
2023-03-11T00:30:47.018Z,0.90
2023-03-11T00:33:16.491Z,1.08
2023-03-11T00:35:43.806Z,1.10
2023-03-11T00:38:14.013Z,1.08
2023-03-11T00:40:40.522Z,0.85
2023-03-11T00:43:08.690Z,2.10
2023-03-11T00:45:35.155Z,1.00
2023-03-11T00:48:01.627Z,1.60
2023-03-11T00:50:33.464Z,1.52
2023-03-11T00:53:00.639Z,1.10
2023-03-11T00:55:30.381Z,1.30
2023-03-11T00:57:59.613Z,0.87
2023-03-11T01:00:27.690Z,0.97
2023-03-11T01:02:54.998Z,0.98
2023-03-11T01:05:24.619Z,1.10
2023-03-11T01:07:51.373Z,1.60
2023-03-11T01:10:18.215Z,4.30
2023-03-11T01:12:45.200Z,1.10
2023-03-11T01:15:18.615Z,1.55
2023-03-11T01:17:45.111Z,2.45
2023-03-11T01:20:12.580Z,1.10
2023-03-11T01:22:39.788Z,1.27
2023-03-11T01:25:06.571Z,1.33
2023-03-11T01:27:32.864Z,2.40
2023-03-11T01:29:59.584Z,2.27
2023-03-11T01:32:26.372Z,2.72
2023-03-11T01:34:55.200Z,4.60
2023-03-11T01:37:21.690Z,2.27
2023-03-11T01:39:48.067Z,4.77
2023-03-11T01:42:14.388Z,3.03
2023-03-11T01:44:41.079Z,9.00
2023-03-11T01:47:12.081Z,1.90
2023-03-11T01:49:39.781Z,1.30
2023-03-11T01:52:08.101Z,1.30
2023-03-11T01:54:40.597Z,1.50
2023-03-11T01:57:12.200Z,1.47
2023-03-11T01:59:46.088Z,4.50
2023-03-11T02:02:22.956Z,3.60
2023-03-11T02:04:51.282Z,1.43
2023-03-11T02:07:18.002Z,2.00
2023-03-11T02:09:44.890Z,1.50
2023-03-11T02:12:14.502Z,1.67
2023-03-11T02:14:45.594Z,2.23
2023-03-11T02:17:12.411Z,6.90
2023-03-11T02:19:56.098Z,2.60
2023-03-11T02:22:23.408Z,2.17
2023-03-11T02:25:15.737Z,3.70
2023-03-11T02:27:46.948Z,3.87
2023-03-11T02:30:14.066Z,2.70
2023-03-11T02:32:43.305Z,3.13
2023-03-11T02:35:10.062Z,2.20
2023-03-11T02:37:36.456Z,2.20
2023-03-11T02:40:36.394Z,5.37
2023-03-11T02:43:09.645Z,2.57
2023-03-11T02:45:40.146Z,2.43
2023-03-11T02:48:08.850Z,1.90
2023-03-11T02:50:35.704Z,2.37
2023-03-11T02:53:02.060Z,2.67
2023-03-11T02:55:28.759Z,2.47
2023-03-11T02:57:55.064Z,2.60
2023-03-11T03:00:21.986Z,1.80
2023-03-11T03:02:48.987Z,2.33
2023-03-11T03:05:15.435Z,4.30
2023-03-11T03:07:41.796Z,3.60
2023-03-11T03:10:09.102Z,2.70
2023-03-11T03:12:35.547Z,2.10
2023-03-11T03:15:02.043Z,2.50
2023-03-11T03:17:30.849Z,3.17
2023-03-11T03:19:57.333Z,2.07
2023-03-11T03:22:23.697Z,2.33
2023-03-11T03:24:50.074Z,4.20
2023-03-11T03:27:16.449Z,4.50
2023-03-11T03:29:43.070Z,2.07
2023-03-11T03:32:09.622Z,3.57
2023-03-11T03:34:36.088Z,6.43
2023-03-11T03:37:03.724Z,6.40
2023-03-11T03:39:30.814Z,5.27
2023-03-11T03:41:57.289Z,3.33
2023-03-11T03:44:23.765Z,2.57
2023-03-11T03:46:50.472Z,5.17
2023-03-11T03:49:16.840Z,2.17
2023-03-11T03:51:43.175Z,2.60
2023-03-11T03:54:09.788Z,3.40
2023-03-11T03:56:36.449Z,4.60
2023-03-11T03:59:03.257Z,4.27
2023-03-11T04:01:29.635Z,2.30
2023-03-11T04:03:56.065Z,2.00
2023-03-11T04:06:25.385Z,2.60
2023-03-11T04:08:53.127Z,2.53
2023-03-11T04:11:20.797Z,2.13
2023-03-11T04:13:47.256Z,2.20
2023-03-11T04:16:19.979Z,1.70
2023-03-11T04:18:46.926Z,4.33
2023-03-11T04:21:15.995Z,3.40
2023-03-11T04:23:42.582Z,2.33
2023-03-11T04:26:08.989Z,3.60
2023-03-11T04:28:35.687Z,8.13
2023-03-11T04:31:02.506Z,6.53
2023-03-11T04:33:30.505Z,6.20
2023-03-11T04:35:57.814Z,4.17
2023-03-11T04:38:24.678Z,5.87
2023-03-11T04:40:51.259Z,4.80
2023-03-11T04:43:17.983Z,5.37
2023-03-11T04:45:45.415Z,7.50
2023-03-11T04:48:13.170Z,2.87
2023-03-11T04:50:39.601Z,2.07
2023-03-11T04:53:06.397Z,2.73
2023-03-11T04:55:33.107Z,2.77
2023-03-11T04:57:59.807Z,5.80
2023-03-11T05:00:26.462Z,4.57
2023-03-11T05:02:53.245Z,2.80
2023-03-11T05:05:19.755Z,3.57
2023-03-11T05:07:46.299Z,3.57
2023-03-11T05:10:13.128Z,6.70
2023-03-11T05:12:39.729Z,5.50
2023-03-11T05:15:08.976Z,8.20
2023-03-11T05:17:35.604Z,7.27
2023-03-11T05:20:02.374Z,4.77
2023-03-11T05:22:29.018Z,1.73
2023-03-11T05:24:55.461Z,4.30
2023-03-11T05:27:22.146Z,4.37
2023-03-11T05:29:48.804Z,2.07
2023-03-11T05:32:15.343Z,3.87
2023-03-11T05:34:42.236Z,1.93
2023-03-11T05:37:09.333Z,3.53
2023-03-11T05:39:36.042Z,2.30
2023-03-11T05:42:02.394Z,5.00
2023-03-11T05:44:28.812Z,7.53
2023-03-11T05:46:55.325Z,4.00
2023-03-11T05:49:22.370Z,3.67
2023-03-11T05:51:50.005Z,3.33
2023-03-11T05:54:17.315Z,3.30
2023-03-11T05:56:45.347Z,2.90
2023-03-11T05:59:16.275Z,4.77
2023-03-11T06:01:44.058Z,6.87
2023-03-11T06:04:11.920Z,5.87
2023-03-11T06:06:39.865Z,2.60
2023-03-11T06:09:06.319Z,5.83
2023-03-11T06:11:32.859Z,3.17
2023-03-11T06:13:59.202Z,4.67
2023-03-11T06:16:26.198Z,4.97
2023-03-11T06:18:52.914Z,3.43
2023-03-11T06:21:22.404Z,4.20
2023-03-11T06:23:49.845Z,5.67
2023-03-11T06:26:19.037Z,1.23
2023-03-11T06:28:46.449Z,8.40
2023-03-11T06:31:18.770Z,6.07
2023-03-11T06:33:45.899Z,6.97
2023-03-11T06:36:16.467Z,6.13
2023-03-11T06:38:43.325Z,2.95
2023-03-11T06:41:10.414Z,8.73
2023-03-11T06:43:37.076Z,4.53
2023-03-11T06:46:18.690Z,2.30
2023-03-11T06:48:46.236Z,4.40
2023-03-11T06:51:14.013Z,4.73
2023-03-11T06:53:42.908Z,2.70
2023-03-11T06:56:13.080Z,5.20
2023-03-11T06:58:42.357Z,6.53
2023-03-11T07:01:17.169Z,5.53
2023-03-11T07:03:45.335Z,2.43
2023-03-11T07:06:14.477Z,6.77
2023-03-11T07:08:41.231Z,3.77
2023-03-11T07:11:14.737Z,3.67
2023-03-11T07:13:41.823Z,4.37
2023-03-11T07:16:23.465Z,5.97
2023-03-11T07:18:51.387Z,3.97
2023-03-11T07:21:20.350Z,4.03
2023-03-11T07:23:47.133Z,6.23
2023-03-11T07:26:17.153Z,5.00
2023-03-11T07:28:43.871Z,3.78
2023-03-11T07:31:14.227Z,10.93
2023-03-11T07:33:41.258Z,5.38
2023-03-11T07:36:14.033Z,4.73
2023-03-11T07:38:41.944Z,6.03
2023-03-11T07:41:11.905Z,5.40
2023-03-11T07:43:39.454Z,9.52
2023-03-11T07:46:14.302Z,8.33
2023-03-11T07:48:42.562Z,4.40
2023-03-11T07:51:21.706Z,9.43
2023-03-11T07:53:51.819Z,5.00
2023-03-11T07:56:20.013Z,5.05
2023-03-11T07:58:47.963Z,3.17
2023-03-11T08:01:17.016Z,8.38
2023-03-11T08:03:48.328Z,7.47
2023-03-11T08:06:22.812Z,4.65
2023-03-11T08:08:51.470Z,6.07
2023-03-11T08:11:19.247Z,4.40
2023-03-11T08:13:47.079Z,5.18
2023-03-11T08:16:19.393Z,5.75
2023-03-11T08:18:47.471Z,5.28
2023-03-11T08:21:16.449Z,5.40
2023-03-11T08:23:43.190Z,8.40
2023-03-11T08:26:13.905Z,5.05
2023-03-11T08:28:41.168Z,3.70
2023-03-11T08:31:25.789Z,3.13
2023-03-11T08:34:01.088Z,7.10
2023-03-11T08:36:30.077Z,5.72
2023-03-11T08:38:56.957Z,4.95
2023-03-11T08:41:25.937Z,4.15
2023-03-11T08:43:53.594Z,3.85
2023-03-11T08:46:32.349Z,5.00
2023-03-11T08:49:01.213Z,4.50
2023-03-11T08:51:29.285Z,4.15
2023-03-11T08:53:55.872Z,2.72
2023-03-11T08:56:22.703Z,4.05
2023-03-11T08:58:49.478Z,6.78
2023-03-11T09:01:16.670Z,4.28
2023-03-11T09:03:43.360Z,6.57
2023-03-11T09:06:14.427Z,5.65
2023-03-11T09:08:42.514Z,2.70
2023-03-11T09:11:10.529Z,4.13
2023-03-11T09:13:37.483Z,2.28
2023-03-11T09:16:04.402Z,3.72
2023-03-11T09:18:31.174Z,4.33
2023-03-11T09:20:57.639Z,4.82
2023-03-11T09:23:25.050Z,4.93
2023-03-11T09:25:51.526Z,7.07
2023-03-11T09:28:18.175Z,4.32
2023-03-11T09:30:45.023Z,6.70
2023-03-11T09:33:11.611Z,1.30
2023-03-11T09:35:39.460Z,5.73
2023-03-11T09:38:06.003Z,3.50
2023-03-11T09:40:55.434Z,5.07
2023-03-11T09:43:55.614Z,4.05
2023-03-11T09:46:56.582Z,4.15
2023-03-11T09:49:37.365Z,5.70
2023-03-11T09:52:10.925Z,5.28
2023-03-11T09:54:45.860Z,4.70
2023-03-11T09:57:19.789Z,4.57
2023-03-11T09:59:47.934Z,6.70
2023-03-11T10:02:24.185Z,5.20
2023-03-11T10:05:12.730Z,9.18
2023-03-11T10:07:47.464Z,3.97
2023-03-11T10:10:15.516Z,2.83
2023-03-11T10:12:54.116Z,2.72
2023-03-11T10:15:42.404Z,4.60
2023-03-11T10:18:47.119Z,2.08
2023-03-11T10:21:27.412Z,5.20
2023-03-11T10:24:14.622Z,4.60
2023-03-11T10:26:57.809Z,2.78
2023-03-11T10:29:31.889Z,4.35
2023-03-11T10:32:13.485Z,3.08
2023-03-11T10:34:47.133Z,4.28
2023-03-11T10:37:50.156Z,4.65
2023-03-11T10:40:26.840Z,5.30
2023-03-11T10:42:57.609Z,3.05
2023-03-11T10:45:25.712Z,4.53
2023-03-11T10:47:52.112Z,21.42
2023-03-11T10:50:20.321Z,6.70
2023-03-11T10:53:10.464Z,3.50
2023-03-11T10:55:57.419Z,2.40
2023-03-11T10:58:29.688Z,5.03
2023-03-11T11:01:14.849Z,4.22
2023-03-11T11:03:43.439Z,2.85
2023-03-11T11:06:34.663Z,4.72
2023-03-11T11:09:15.935Z,4.90
2023-03-11T11:11:59.933Z,1.85
2023-03-11T11:14:26.698Z,4.80
2023-03-11T11:16:53.482Z,4.72
2023-03-11T11:19:20.297Z,6.82
2023-03-11T11:21:50.591Z,3.88
2023-03-11T11:24:27.715Z,2.90
2023-03-11T11:27:04.601Z,4.80
2023-03-11T11:29:31.829Z,3.13
2023-03-11T11:32:15.699Z,1.45
2023-03-11T11:34:52.807Z,1.90
2023-03-11T11:37:20.619Z,2.42
2023-03-11T11:39:50.382Z,1.92
2023-03-11T11:42:19.143Z,2.33
2023-03-11T11:44:50.859Z,1.10
2023-03-11T11:47:24.953Z,3.65
2023-03-11T11:50:02.198Z,1.35
2023-03-11T11:52:37.323Z,5.30
2023-03-11T11:55:09.089Z,4.45
2023-03-11T11:57:35.452Z,2.17
2023-03-11T12:00:02.557Z,3.25
2023-03-11T12:02:45.372Z,5.90
2023-03-11T12:05:32.281Z,3.20
2023-03-11T12:08:04.815Z,3.35
2023-03-11T12:10:36.975Z,3.70
2023-03-11T12:13:33.752Z,1.92
2023-03-11T12:16:44.472Z,5.65
2023-03-11T12:19:21.066Z,4.38
2023-03-11T12:22:11.439Z,4.50
2023-03-11T12:25:18.284Z,4.97
2023-03-11T12:27:49.699Z,4.50
2023-03-11T12:30:25.648Z,4.10
2023-03-11T12:32:56.717Z,5.20
2023-03-11T12:35:29.325Z,3.00
2023-03-11T12:38:01.565Z,2.35
2023-03-11T12:40:48.930Z,4.75
2023-03-11T12:43:33.648Z,5.15
2023-03-11T12:46:02.196Z,4.15
2023-03-11T12:48:28.721Z,3.58
2023-03-11T12:50:56.550Z,3.45
2023-03-11T12:53:46.091Z,1.50
2023-03-11T12:56:34.464Z,4.10
2023-03-11T12:59:21.499Z,3.53
2023-03-11T13:01:53.835Z,3.05
2023-03-11T13:04:52.349Z,4.68
2023-03-11T13:07:36.777Z,3.20
2023-03-11T13:10:07.628Z,1.83
2023-03-11T13:15:18.290Z,3.45
2023-03-11T13:18:12.462Z,4.70
2023-03-11T13:20:39.058Z,2.97
2023-03-11T13:23:14.440Z,3.40
2023-03-11T13:25:49.897Z,2.65
2023-03-11T13:28:44.810Z,3.63
2023-03-11T13:31:31.046Z,1.30
2023-03-11T13:34:40.674Z,3.05
2023-03-11T13:37:44.910Z,5.47
2023-03-11T13:40:41.882Z,3.70
2023-03-11T13:43:26.627Z,1.63
2023-03-11T13:45:58.316Z,7.13
2023-03-11T13:48:38.115Z,3.08
2023-03-11T13:51:16.167Z,2.00
2023-03-11T13:53:47.823Z,3.55
2023-03-11T13:56:22.019Z,2.92
2023-03-11T13:58:48.946Z,15.00
2023-03-11T14:01:17.460Z,10.20
2023-03-11T14:03:46.418Z,3.25
2023-03-11T14:06:20.021Z,4.90
2023-03-11T14:08:57.885Z,2.45
2023-03-11T14:11:29.186Z,2.35
2023-03-11T14:13:56.166Z,2.90
2023-03-11T14:16:31.113Z,2.95
2023-03-11T14:19:05.220Z,6.57
2023-03-11T14:21:31.749Z,7.15
2023-03-11T14:23:58.287Z,4.78
2023-03-11T14:26:29.242Z,3.30
2023-03-11T14:29:01.312Z,3.72
2023-03-11T14:31:40.084Z,7.43
2023-03-11T14:34:31.855Z,3.30
2023-03-11T14:36:59.974Z,3.97
2023-03-11T14:39:26.359Z,1.33
2023-03-11T14:41:58.197Z,2.03
2023-03-11T14:44:27.991Z,2.78
2023-03-11T14:47:16.191Z,4.43
2023-03-11T14:49:43.740Z,3.80
2023-03-11T14:52:37.705Z,3.40
2023-03-11T14:55:17.967Z,2.88
2023-03-11T14:58:15.688Z,5.03
2023-03-11T15:00:49.261Z,3.13
2023-03-11T15:03:25.000Z,5.22
2023-03-11T15:06:14.038Z,3.90
2023-03-11T15:09:03.947Z,2.95
2023-03-11T15:11:30.618Z,1.65
2023-03-11T15:14:17.562Z,2.17
2023-03-11T15:16:44.036Z,1.30
2023-03-11T15:19:28.668Z,11.82
2023-03-11T15:21:58.171Z,2.63
2023-03-11T15:24:27.926Z,4.70
2023-03-11T15:27:05.701Z,4.00
2023-03-11T15:29:34.031Z,2.53
2023-03-11T15:32:01.085Z,4.97
2023-03-11T15:34:28.710Z,2.22
2023-03-11T15:36:57.239Z,3.50
2023-03-11T15:39:32.704Z,3.85
2023-03-11T15:42:08.215Z,2.80
2023-03-11T15:44:40.913Z,3.10
2023-03-11T15:47:15.706Z,3.22
2023-03-11T15:49:42.863Z,6.38
2023-03-11T15:52:09.915Z,2.60
2023-03-11T15:54:36.780Z,3.55
2023-03-11T15:57:06.816Z,5.65
2023-03-11T15:59:35.131Z,2.60
2023-03-11T16:02:01.520Z,3.08
2023-03-11T16:04:29.934Z,2.58
2023-03-11T16:07:07.585Z,5.82
2023-03-11T16:09:34.890Z,9.05
2023-03-11T16:12:02.438Z,5.32
2023-03-11T16:14:28.815Z,7.82
2023-03-11T16:16:55.654Z,4.53
2023-03-11T16:19:23.644Z,6.13
2023-03-11T16:21:50.607Z,5.45
2023-03-11T16:24:22.691Z,4.10
2023-03-11T16:26:50.373Z,4.30
2023-03-11T16:29:19.754Z,5.60
2023-03-11T16:31:47.130Z,4.38
2023-03-11T16:34:13.661Z,6.22
2023-03-11T16:36:40.456Z,3.08
2023-03-11T16:39:06.879Z,5.15
2023-03-11T16:41:42.277Z,4.45
2023-03-11T16:44:09.888Z,6.15
2023-03-11T16:46:37.170Z,3.53
2023-03-11T16:49:04.028Z,4.40
2023-03-11T16:51:30.896Z,5.55
2023-03-11T16:53:59.801Z,2.75
2023-03-11T16:56:26.477Z,10.15
2023-03-11T16:58:52.939Z,4.80
2023-03-11T17:01:19.750Z,9.68
2023-03-11T17:03:47.098Z,2.42
2023-03-11T17:06:13.503Z,3.03
2023-03-11T17:08:40.382Z,4.10
2023-03-11T17:11:14.816Z,1.48
2023-03-11T17:13:41.403Z,5.35
2023-03-11T17:16:08.029Z,5.97
2023-03-11T17:18:34.752Z,7.90
2023-03-11T17:21:06.586Z,5.90
2023-03-11T17:23:34.492Z,7.50
2023-03-11T17:26:01.777Z,5.35
2023-03-11T17:28:28.419Z,4.38
2023-03-11T17:30:55.063Z,5.43
2023-03-11T17:33:21.462Z,6.18
2023-03-11T17:35:47.867Z,11.23
2023-03-11T17:38:16.461Z,5.30
2023-03-11T17:40:44.082Z,4.43
2023-03-11T17:43:10.462Z,5.20
2023-03-11T17:45:39.014Z,6.10
2023-03-11T17:48:05.704Z,6.50
2023-03-11T17:50:32.161Z,6.90
2023-03-11T17:52:58.621Z,6.55
2023-03-11T17:55:27.470Z,6.32
2023-03-11T17:57:53.894Z,12.15
2023-03-11T18:00:21.268Z,6.53
2023-03-11T18:02:47.717Z,8.20
2023-03-11T18:05:14.104Z,6.30
2023-03-11T18:07:40.549Z,6.85
2023-03-11T18:10:08.534Z,4.95
2023-03-11T18:12:35.046Z,4.47
2023-03-11T18:15:03.309Z,6.43
2023-03-11T18:17:30.283Z,5.05
2023-03-11T18:19:56.793Z,3.05
2023-03-11T18:22:23.246Z,9.57
2023-03-11T18:24:49.608Z,3.97
2023-03-11T18:27:15.959Z,4.75
2023-03-11T18:29:42.369Z,6.18
2023-03-11T18:32:09.070Z,7.32
2023-03-11T18:34:35.511Z,7.72
2023-03-11T18:37:02.280Z,5.53
2023-03-11T18:39:28.821Z,6.97
2023-03-11T18:41:55.296Z,11.02
2023-03-11T18:44:21.690Z,7.65
2023-03-11T18:46:48.527Z,6.63
2023-03-11T18:49:16.145Z,11.60
2023-03-11T18:51:42.801Z,14.52
2023-03-11T18:54:10.576Z,9.55
2023-03-11T18:56:37.517Z,10.30
2023-03-11T18:59:04.273Z,11.63
2023-03-11T19:01:31.070Z,5.25
2023-03-11T19:04:01.725Z,6.07
2023-03-11T19:06:29.245Z,5.80
2023-03-11T19:08:56.001Z,7.88
2023-03-11T19:11:24.328Z,6.68
2023-03-11T19:13:51.496Z,3.95
2023-03-11T19:16:21.985Z,6.72
2023-03-11T19:18:49.144Z,5.55
2023-03-11T19:21:16.534Z,6.35
2023-03-11T19:23:44.099Z,12.07
2023-03-11T19:26:10.878Z,10.45
2023-03-11T19:28:38.875Z,10.67
2023-03-11T19:31:08.917Z,8.18
2023-03-11T19:33:36.654Z,8.63
2023-03-11T19:36:05.327Z,8.47
2023-03-11T19:38:33.848Z,12.77
2023-03-11T19:41:01.649Z,21.57
2023-03-11T19:43:28.768Z,8.43
2023-03-11T19:45:56.064Z,14.33
2023-03-11T19:48:22.761Z,10.97
2023-03-11T19:50:50.809Z,10.60
2023-03-11T19:53:18.230Z,9.47
2023-03-11T19:55:50.821Z,11.03
2023-03-11T19:58:17.475Z,8.70
2023-03-11T20:00:44.262Z,8.47
2023-03-11T20:03:12.176Z,5.07
2023-03-11T20:05:42.986Z,8.93
2023-03-11T20:08:11.056Z,8.00
2023-03-11T20:10:39.621Z,9.73
2023-03-11T20:13:06.872Z,6.77
2023-03-11T20:15:33.835Z,11.20
2023-03-11T20:18:01.199Z,7.47
2023-03-11T20:20:28.500Z,9.57
2023-03-11T20:22:56.055Z,14.03
2023-03-11T20:25:23.571Z,8.83
2023-03-11T20:27:52.326Z,7.53
2023-03-11T20:30:19.755Z,8.30
2023-03-11T20:32:47.810Z,7.83
2023-03-11T20:35:15.505Z,9.20
2023-03-11T20:37:45.403Z,12.03
2023-03-11T20:40:14.239Z,10.20
2023-03-11T20:42:41.331Z,7.43
2023-03-11T20:45:08.304Z,15.17
2023-03-11T20:47:34.944Z,9.07
2023-03-11T20:50:01.520Z,10.00
2023-03-11T20:52:29.271Z,8.10
2023-03-11T20:54:56.773Z,9.10
2023-03-11T20:57:23.476Z,9.07
2023-03-11T20:59:50.041Z,8.47
2023-03-11T21:02:16.681Z,7.50
2023-03-11T21:04:44.556Z,11.70
2023-03-11T21:07:11.009Z,10.90
2023-03-11T21:09:37.355Z,11.40
2023-03-11T21:12:04.408Z,9.20
2023-03-11T21:14:30.751Z,10.40
2023-03-11T21:16:57.506Z,9.90
2023-03-11T21:19:24.062Z,8.87
2023-03-11T21:21:50.399Z,12.37
2023-03-11T21:24:17.345Z,8.77
2023-03-11T21:26:43.780Z,8.00
2023-03-11T21:29:10.150Z,9.50
2023-03-11T21:31:36.674Z,6.00
2023-03-11T21:34:03.212Z,8.40
2023-03-11T21:36:32.381Z,9.97
2023-03-11T21:38:59.928Z,11.27
2023-03-11T21:41:27.748Z,7.60
2023-03-11T21:43:55.818Z,9.87
2023-03-11T21:46:26.434Z,5.87
2023-03-11T21:48:53.191Z,10.80
2023-03-11T21:51:20.789Z,9.67
2023-03-11T21:53:48.445Z,12.03
2023-03-11T21:56:15.586Z,9.50
2023-03-11T21:58:42.728Z,8.87
2023-03-11T22:01:11.032Z,13.00
2023-03-11T22:03:39.321Z,10.80
2023-03-11T22:06:09.030Z,14.07
2023-03-11T22:08:35.953Z,8.00
2023-03-11T22:11:03.580Z,9.77
2023-03-11T22:13:30.671Z,9.13
2023-03-11T22:15:57.594Z,8.77
2023-03-11T22:18:24.315Z,14.10
2023-03-11T22:20:50.843Z,12.07
2023-03-11T22:23:17.284Z,12.67
2023-03-11T22:25:43.803Z,7.50
2023-03-11T22:28:10.341Z,10.30
2023-03-11T22:30:37.159Z,11.60
2023-03-11T22:33:03.667Z,9.53
2023-03-11T22:35:30.040Z,13.03
2023-03-11T22:37:56.433Z,14.03
2023-03-11T22:40:22.979Z,8.60
2023-03-11T22:42:49.510Z,10.43
2023-03-11T22:45:15.974Z,9.33
2023-03-11T22:47:42.335Z,9.13
2023-03-11T22:50:10.079Z,10.90
2023-03-11T22:52:36.519Z,11.37
2023-03-11T22:55:02.910Z,9.73
2023-03-11T22:57:29.656Z,9.97
2023-03-11T22:59:56.114Z,13.13
2023-03-11T23:02:22.515Z,11.87
2023-03-11T23:04:48.912Z,13.30
2023-03-11T23:07:15.524Z,9.53
2023-03-11T23:09:41.878Z,15.20
2023-03-11T23:12:08.505Z,12.73
2023-03-11T23:14:44.535Z,12.37
2023-03-11T23:17:12.496Z,14.17
2023-03-11T23:19:39.039Z,16.13
2023-03-11T23:22:05.776Z,13.80
2023-03-11T23:24:32.257Z,10.63
2023-03-11T23:26:58.698Z,9.27
2023-03-11T23:29:25.265Z,15.03
2023-03-11T23:31:51.758Z,13.50
2023-03-11T23:34:18.076Z,13.00
2023-03-11T23:36:44.604Z,11.67
2023-03-11T23:39:11.119Z,11.33
2023-03-11T23:41:39.883Z,10.33
2023-03-11T23:44:06.525Z,10.80
2023-03-11T23:46:34.078Z,14.47
2023-03-11T23:49:00.645Z,9.57
2023-03-11T23:51:27.567Z,10.77
2023-03-11T23:53:55.724Z,10.73
2023-03-11T23:56:22.430Z,13.73
2023-03-11T23:58:49.073Z,13.50
